sensor_id;sensor_type;location;lat;lon;timestamp;temperature;humidity
9965;DHT22;5023;53.554;9.964;2023-01-28T00:01:41;2.80;99.90
9965;DHT22;5023;53.554;9.964;2023-01-28T00:06:43;2.80;99.90
9965;DHT22;5023;53.554;9.964;2023-01-28T00:11:47;2.70;99.90
9965;DHT22;5023;53.554;9.964;2023-01-28T00:16:49;2.70;99.90
9965;DHT22;5023;53.554;9.964;2023-01-28T00:21:51;2.80;99.90
9965;DHT22;5023;53.554;9.964;2023-01-28T00:26:54;2.90;99.90
9965;DHT22;5023;53.554;9.964;2023-01-28T00:31:56;2.90;99.90
9965;DHT22;5023;53.554;9.964;2023-01-28T00:36:58;2.80;99.90
9965;DHT22;5023;53.554;9.964;2023-01-28T00:42:01;2.70;99.90
9965;DHT22;5023;53.554;9.964;2023-01-28T00:47:05;2.70;99.90
9965;DHT22;5023;53.554;9.964;2023-01-28T00:52:07;2.70;99.90
9965;DHT22;5023;53.554;9.964;2023-01-28T00:57:13;2.80;99.90
9965;DHT22;5023;53.554;9.964;2023-01-28T01:02:14;2.80;99.90
9965;DHT22;5023;53.554;9.964;2023-01-28T01:07:17;2.80;99.90
9965;DHT22;5023;53.554;9.964;2023-01-28T01:12:22;2.80;99.90
9965;DHT22;5023;53.554;9.964;2023-01-28T01:17:24;2.90;99.90
9965;DHT22;5023;53.554;9.964;2023-01-28T01:22:26;2.80;99.90
9965;DHT22;5023;53.554;9.964;2023-01-28T01:27:29;2.90;99.90
9965;DHT22;5023;53.554;9.964;2023-01-28T01:32:31;2.90;99.90
9965;DHT22;5023;53.554;9.964;2023-01-28T01:37:34;3.00;99.90
9965;DHT22;5023;53.554;9.964;2023-01-28T01:42:38;2.80;99.90
9965;DHT22;5023;53.554;9.964;2023-01-28T01:47:45;2.90;99.90
9965;DHT22;5023;53.554;9.964;2023-01-28T01:52:49;2.90;99.90
9965;DHT22;5023;53.554;9.964;2023-01-28T01:57:56;2.80;99.90
9965;DHT22;5023;53.554;9.964;2023-01-28T02:02:59;2.70;99.90
9965;DHT22;5023;53.554;9.964;2023-01-28T02:08:03;2.70;99.90
9965;DHT22;5023;53.554;9.964;2023-01-28T02:13:23;2.80;99.90
9965;DHT22;5023;53.554;9.964;2023-01-28T02:18:28;2.80;99.90
9965;DHT22;5023;53.554;9.964;2023-01-28T02:23:43;2.80;99.90
9965;DHT22;5023;53.554;9.964;2023-01-28T02:28:51;2.80;99.90
9965;DHT22;5023;53.554;9.964;2023-01-28T02:34:08;2.80;99.90
9965;DHT22;5023;53.554;9.964;2023-01-28T02:39:17;2.90;99.90
9965;DHT22;5023;53.554;9.964;2023-01-28T02:44:22;3.00;99.90
9965;DHT22;5023;53.554;9.964;2023-01-28T02:49:27;2.80;99.90
9965;DHT22;5023;53.554;9.964;2023-01-28T02:54:37;2.70;99.90
9965;DHT22;5023;53.554;9.964;2023-01-28T02:59:48;2.80;99.90
9965;DHT22;5023;53.554;9.964;2023-01-28T03:04:56;2.80;99.90
9965;DHT22;5023;53.554;9.964;2023-01-28T03:10:03;2.70;99.90
9965;DHT22;5023;53.554;9.964;2023-01-28T03:15:11;2.60;99.90
9965;DHT22;5023;53.554;9.964;2023-01-28T03:20:36;2.70;99.90
9965;DHT22;5023;53.554;9.964;2023-01-28T03:26:00;2.60;99.90
9965;DHT22;5023;53.554;9.964;2023-01-28T03:31:25;2.50;99.90
9965;DHT22;5023;53.554;9.964;2023-01-28T03:36:45;2.50;99.90
9965;DHT22;5023;53.554;9.964;2023-01-28T03:41:59;2.60;99.90
9965;DHT22;5023;53.554;9.964;2023-01-28T03:47:04;2.50;99.90
9965;DHT22;5023;53.554;9.964;2023-01-28T03:52:08;2.50;99.90
9965;DHT22;5023;53.554;9.964;2023-01-28T03:57:11;2.40;99.90
9965;DHT22;5023;53.554;9.964;2023-01-28T04:02:16;2.60;99.90
9965;DHT22;5023;53.554;9.964;2023-01-28T04:07:18;2.60;99.90
9965;DHT22;5023;53.554;9.964;2023-01-28T04:12:20;2.60;99.90
9965;DHT22;5023;53.554;9.964;2023-01-28T04:17:24;2.70;99.90
9965;DHT22;5023;53.554;9.964;2023-01-28T04:22:26;2.60;99.90
9965;DHT22;5023;53.554;9.964;2023-01-28T04:27:29;2.50;99.90
9965;DHT22;5023;53.554;9.964;2023-01-28T04:32:33;2.40;99.90
9965;DHT22;5023;53.554;9.964;2023-01-28T04:37:36;2.40;99.90
9965;DHT22;5023;53.554;9.964;2023-01-28T04:42:38;2.40;99.90
9965;DHT22;5023;53.554;9.964;2023-01-28T04:47:42;2.40;99.90
9965;DHT22;5023;53.554;9.964;2023-01-28T04:52:44;2.40;99.90
9965;DHT22;5023;53.554;9.964;2023-01-28T04:57:47;2.30;99.90
9965;DHT22;5023;53.554;9.964;2023-01-28T05:02:51;2.40;99.90
9965;DHT22;5023;53.554;9.964;2023-01-28T05:07:55;2.40;99.90
9965;DHT22;5023;53.554;9.964;2023-01-28T05:12:57;2.50;99.90
9965;DHT22;5023;53.554;9.964;2023-01-28T05:18:00;2.40;99.90
9965;DHT22;5023;53.554;9.964;2023-01-28T05:23:02;2.40;99.90
9965;DHT22;5023;53.554;9.964;2023-01-28T05:28:07;2.30;99.90
9965;DHT22;5023;53.554;9.964;2023-01-28T05:33:11;2.20;99.90
9965;DHT22;5023;53.554;9.964;2023-01-28T05:38:13;2.20;99.90
9965;DHT22;5023;53.554;9.964;2023-01-28T05:43:15;2.10;99.90
9965;DHT22;5023;53.554;9.964;2023-01-28T05:48:19;2.10;99.90
9965;DHT22;5023;53.554;9.964;2023-01-28T05:53:21;2.00;99.90
9965;DHT22;5023;53.554;9.964;2023-01-28T05:58:23;1.90;99.90
9965;DHT22;5023;53.554;9.964;2023-01-28T06:03:28;1.90;99.90
9965;DHT22;5023;53.554;9.964;2023-01-28T06:08:30;1.90;99.90
9965;DHT22;5023;53.554;9.964;2023-01-28T06:13:34;1.80;99.90
9965;DHT22;5023;53.554;9.964;2023-01-28T06:18:38;1.80;99.90
9965;DHT22;5023;53.554;9.964;2023-01-28T06:23:41;1.80;99.90
9965;DHT22;5023;53.554;9.964;2023-01-28T06:28:44;1.80;99.90
9965;DHT22;5023;53.554;9.964;2023-01-28T06:33:48;1.70;99.90
9965;DHT22;5023;53.554;9.964;2023-01-28T06:38:50;1.70;99.90
9965;DHT22;5023;53.554;9.964;2023-01-28T06:43:52;1.70;99.90
9965;DHT22;5023;53.554;9.964;2023-01-28T06:48:55;1.70;99.90
9965;DHT22;5023;53.554;9.964;2023-01-28T06:53:58;1.70;99.90
9965;DHT22;5023;53.554;9.964;2023-01-28T06:59:00;1.60;99.90
9965;DHT22;5023;53.554;9.964;2023-01-28T07:04:06;1.50;99.90
9965;DHT22;5023;53.554;9.964;2023-01-28T07:09:08;1.40;99.90
9965;DHT22;5023;53.554;9.964;2023-01-28T07:14:10;1.40;99.90
9965;DHT22;5023;53.554;9.964;2023-01-28T07:19:13;1.40;99.90
9965;DHT22;5023;53.554;9.964;2023-01-28T07:24:17;1.40;99.90
9965;DHT22;5023;53.554;9.964;2023-01-28T07:29:19;1.40;99.90
9965;DHT22;5023;53.554;9.964;2023-01-28T07:34:22;1.30;99.90
9965;DHT22;5023;53.554;9.964;2023-01-28T07:39:24;1.10;99.90
9965;DHT22;5023;53.554;9.964;2023-01-28T07:44:26;1.10;99.90
9965;DHT22;5023;53.554;9.964;2023-01-28T07:49:30;1.10;99.90
9965;DHT22;5023;53.554;9.964;2023-01-28T07:54:32;1.10;99.90
9965;DHT22;5023;53.554;9.964;2023-01-28T07:59:34;1.20;99.90
9965;DHT22;5023;53.554;9.964;2023-01-28T08:04:38;1.00;99.90
9965;DHT22;5023;53.554;9.964;2023-01-28T08:09:40;0.90;99.90
9965;DHT22;5023;53.554;9.964;2023-01-28T08:14:42;0.80;99.90
9965;DHT22;5023;53.554;9.964;2023-01-28T08:19:46;0.90;99.90
9965;DHT22;5023;53.554;9.964;2023-01-28T08:24:48;0.70;99.90
9965;DHT22;5023;53.554;9.964;2023-01-28T08:29:50;0.80;99.90
9965;DHT22;5023;53.554;9.964;2023-01-28T08:34:54;0.80;99.90
9965;DHT22;5023;53.554;9.964;2023-01-28T08:39:56;0.90;99.90
9965;DHT22;5023;53.554;9.964;2023-01-28T08:44:58;0.80;99.90
9965;DHT22;5023;53.554;9.964;2023-01-28T08:50:01;0.80;99.90
9965;DHT22;5023;53.554;9.964;2023-01-28T08:55:04;0.90;99.90
9965;DHT22;5023;53.554;9.964;2023-01-28T09:00:08;1.10;99.90
9965;DHT22;5023;53.554;9.964;2023-01-28T09:05:12;1.30;99.90
9965;DHT22;5023;53.554;9.964;2023-01-28T09:10:15;2.40;99.90
9965;DHT22;5023;53.554;9.964;2023-01-28T09:15:17;3.10;99.90
9965;DHT22;5023;53.554;9.964;2023-01-28T09:20:21;3.40;99.90
9965;DHT22;5023;53.554;9.964;2023-01-28T09:25:25;4.00;99.90
9965;DHT22;5023;53.554;9.964;2023-01-28T09:30:27;4.10;99.90
9965;DHT22;5023;53.554;9.964;2023-01-28T09:35:32;4.40;99.90
9965;DHT22;5023;53.554;9.964;2023-01-28T09:40:36;4.30;99.90
9965;DHT22;5023;53.554;9.964;2023-01-28T09:45:42;4.00;99.90
9965;DHT22;5023;53.554;9.964;2023-01-28T09:50:48;3.70;99.90
9965;DHT22;5023;53.554;9.964;2023-01-28T09:55:54;3.90;99.90
9965;DHT22;5023;53.554;9.964;2023-01-28T10:01:01;3.50;99.90
9965;DHT22;5023;53.554;9.964;2023-01-28T10:06:17;3.60;99.90
9965;DHT22;5023;53.554;9.964;2023-01-28T10:11:37;4.00;99.90
9965;DHT22;5023;53.554;9.964;2023-01-28T10:16:43;4.60;99.90
9965;DHT22;5023;53.554;9.964;2023-01-28T10:21:52;4.10;99.90
9965;DHT22;5023;53.554;9.964;2023-01-28T10:26:55;3.60;99.90
9965;DHT22;5023;53.554;9.964;2023-01-28T10:32:01;3.30;99.90
9965;DHT22;5023;53.554;9.964;2023-01-28T10:37:08;3.00;99.90
9965;DHT22;5023;53.554;9.964;2023-01-28T10:42:25;3.00;99.90
9965;DHT22;5023;53.554;9.964;2023-01-28T10:47:31;3.00;99.90
9965;DHT22;5023;53.554;9.964;2023-01-28T10:52:36;3.10;99.90
9965;DHT22;5023;53.554;9.964;2023-01-28T10:57:41;3.00;99.90
9965;DHT22;5023;53.554;9.964;2023-01-28T11:02:47;3.10;99.90
9965;DHT22;5023;53.554;9.964;2023-01-28T11:08:03;3.20;99.90
9965;DHT22;5023;53.554;9.964;2023-01-28T11:13:13;3.40;99.90
9965;DHT22;5023;53.554;9.964;2023-01-28T11:18:18;3.60;99.90
9965;DHT22;5023;53.554;9.964;2023-01-28T11:23:27;3.70;99.90
9965;DHT22;5023;53.554;9.964;2023-01-28T11:28:31;3.60;99.90
9965;DHT22;5023;53.554;9.964;2023-01-28T11:33:37;3.60;99.90
9965;DHT22;5023;53.554;9.964;2023-01-28T11:38:50;3.70;99.90
9965;DHT22;5023;53.554;9.964;2023-01-28T11:43:53;3.30;99.90
9965;DHT22;5023;53.554;9.964;2023-01-28T11:49:00;3.50;99.90
9965;DHT22;5023;53.554;9.964;2023-01-28T11:54:26;3.50;99.90
9965;DHT22;5023;53.554;9.964;2023-01-28T12:05:24;3.70;99.90
9965;DHT22;5023;53.554;9.964;2023-01-28T12:10:36;3.30;99.90
9965;DHT22;5023;53.554;9.964;2023-01-28T12:16:07;3.30;99.90
9965;DHT22;5023;53.554;9.964;2023-01-28T12:21:19;3.40;99.90
9965;DHT22;5023;53.554;9.964;2023-01-28T12:26:34;3.50;99.90
9965;DHT22;5023;53.554;9.964;2023-01-28T12:32:05;3.70;99.90
9965;DHT22;5023;53.554;9.964;2023-01-28T12:37:21;3.70;99.90
9965;DHT22;5023;53.554;9.964;2023-01-28T12:42:35;3.70;99.90
9965;DHT22;5023;53.554;9.964;2023-01-28T12:47:44;3.60;99.90
9965;DHT22;5023;53.554;9.964;2023-01-28T12:52:52;3.70;99.90
9965;DHT22;5023;53.554;9.964;2023-01-28T12:57:58;3.50;99.90
9965;DHT22;5023;53.554;9.964;2023-01-28T13:03:09;3.40;99.90
9965;DHT22;5023;53.554;9.964;2023-01-28T13:08:16;3.50;99.90
9965;DHT22;5023;53.554;9.964;2023-01-28T13:13:28;3.50;99.90
9965;DHT22;5023;53.554;9.964;2023-01-28T13:18:34;3.50;99.90
9965;DHT22;5023;53.554;9.964;2023-01-28T13:23:45;3.50;99.90
9965;DHT22;5023;53.554;9.964;2023-01-28T13:28:51;3.50;99.90
9965;DHT22;5023;53.554;9.964;2023-01-28T13:34:01;3.50;99.90
9965;DHT22;5023;53.554;9.964;2023-01-28T13:39:13;3.50;99.90
9965;DHT22;5023;53.554;9.964;2023-01-28T13:44:27;3.30;99.90
9965;DHT22;5023;53.554;9.964;2023-01-28T13:49:33;3.40;99.90
9965;DHT22;5023;53.554;9.964;2023-01-28T13:54:40;3.30;99.90
9965;DHT22;5023;53.554;9.964;2023-01-28T13:59:53;3.40;99.90
9965;DHT22;5023;53.554;9.964;2023-01-28T14:05:25;3.40;99.90
9965;DHT22;5023;53.554;9.964;2023-01-28T14:10:42;3.30;99.90
9965;DHT22;5023;53.554;9.964;2023-01-28T14:16:00;3.40;99.90
9965;DHT22;5023;53.554;9.964;2023-01-28T14:21:11;3.40;99.90
9965;DHT22;5023;53.554;9.964;2023-01-28T14:26:25;3.30;99.90
9965;DHT22;5023;53.554;9.964;2023-01-28T14:31:36;3.30;99.90
9965;DHT22;5023;53.554;9.964;2023-01-28T14:36:40;3.20;99.90
9965;DHT22;5023;53.554;9.964;2023-01-28T14:41:47;3.20;99.90
9965;DHT22;5023;53.554;9.964;2023-01-28T14:46:59;3.20;99.90
9965;DHT22;5023;53.554;9.964;2023-01-28T14:52:28;3.20;99.90
9965;DHT22;5023;53.554;9.964;2023-01-28T14:57:44;3.30;99.90
9965;DHT22;5023;53.554;9.964;2023-01-28T15:02:53;3.40;99.90
9965;DHT22;5023;53.554;9.964;2023-01-28T15:07:59;3.40;99.90
9965;DHT22;5023;53.554;9.964;2023-01-28T15:13:06;3.40;99.90
9965;DHT22;5023;53.554;9.964;2023-01-28T15:18:16;3.40;99.90
9965;DHT22;5023;53.554;9.964;2023-01-28T15:23:26;3.30;99.90
9965;DHT22;5023;53.554;9.964;2023-01-28T15:28:30;3.30;99.90
9965;DHT22;5023;53.554;9.964;2023-01-28T15:33:34;3.40;99.90
9965;DHT22;5023;53.554;9.964;2023-01-28T15:38:36;3.40;99.90
9965;DHT22;5023;53.554;9.964;2023-01-28T15:43:38;3.40;99.90
9965;DHT22;5023;53.554;9.964;2023-01-28T15:48:47;3.30;99.90
9965;DHT22;5023;53.554;9.964;2023-01-28T15:53:54;3.30;99.90
9965;DHT22;5023;53.554;9.964;2023-01-28T15:59:08;3.20;99.90
9965;DHT22;5023;53.554;9.964;2023-01-28T16:04:22;3.30;99.90
9965;DHT22;5023;53.554;9.964;2023-01-28T16:09:28;3.30;99.90
9965;DHT22;5023;53.554;9.964;2023-01-28T16:14:36;3.30;99.90
9965;DHT22;5023;53.554;9.964;2023-01-28T16:19:44;3.30;99.90
9965;DHT22;5023;53.554;9.964;2023-01-28T16:24:58;3.20;99.90
9965;DHT22;5023;53.554;9.964;2023-01-28T16:30:22;3.30;99.90
9965;DHT22;5023;53.554;9.964;2023-01-28T16:35:34;3.20;99.90
9965;DHT22;5023;53.554;9.964;2023-01-28T16:40:37;3.20;99.90
9965;DHT22;5023;53.554;9.964;2023-01-28T16:45:40;3.20;99.90
9965;DHT22;5023;53.554;9.964;2023-01-28T16:50:44;3.20;99.90
9965;DHT22;5023;53.554;9.964;2023-01-28T16:55:48;3.20;99.90
9965;DHT22;5023;53.554;9.964;2023-01-28T17:00:51;3.20;99.90
9965;DHT22;5023;53.554;9.964;2023-01-28T17:05:58;3.10;99.90
9965;DHT22;5023;53.554;9.964;2023-01-28T17:11:03;3.10;99.90
9965;DHT22;5023;53.554;9.964;2023-01-28T17:16:07;3.10;99.90
9965;DHT22;5023;53.554;9.964;2023-01-28T17:21:12;3.00;99.90
9965;DHT22;5023;53.554;9.964;2023-01-28T17:26:15;2.90;99.90
9965;DHT22;5023;53.554;9.964;2023-01-28T17:31:20;2.90;99.90
9965;DHT22;5023;53.554;9.964;2023-01-28T17:36:26;3.00;99.90
9965;DHT22;5023;53.554;9.964;2023-01-28T17:41:29;3.00;99.90
9965;DHT22;5023;53.554;9.964;2023-01-28T17:46:31;3.00;99.90
9965;DHT22;5023;53.554;9.964;2023-01-28T17:51:37;3.00;99.90
9965;DHT22;5023;53.554;9.964;2023-01-28T17:56:39;3.00;99.90
9965;DHT22;5023;53.554;9.964;2023-01-28T18:01:43;3.10;99.90
9965;DHT22;5023;53.554;9.964;2023-01-28T18:06:47;3.00;99.90
9965;DHT22;5023;53.554;9.964;2023-01-28T18:11:52;3.00;99.90
9965;DHT22;5023;53.554;9.964;2023-01-28T18:16:54;3.00;99.90
9965;DHT22;5023;53.554;9.964;2023-01-28T18:21:58;3.00;99.90
9965;DHT22;5023;53.554;9.964;2023-01-28T18:27:02;2.90;99.90
9965;DHT22;5023;53.554;9.964;2023-01-28T18:32:04;2.90;99.90
9965;DHT22;5023;53.554;9.964;2023-01-28T18:37:08;2.90;99.90
9965;DHT22;5023;53.554;9.964;2023-01-28T18:42:10;2.90;99.90
9965;DHT22;5023;53.554;9.964;2023-01-28T18:47:13;2.90;99.90
9965;DHT22;5023;53.554;9.964;2023-01-28T18:52:16;2.80;99.90
9965;DHT22;5023;53.554;9.964;2023-01-28T18:57:19;2.80;99.90
9965;DHT22;5023;53.554;9.964;2023-01-28T19:02:22;2.90;99.90
9965;DHT22;5023;53.554;9.964;2023-01-28T19:07:26;2.80;99.90
9965;DHT22;5023;53.554;9.964;2023-01-28T19:12:28;2.70;99.90
9965;DHT22;5023;53.554;9.964;2023-01-28T19:17:30;2.80;99.90
9965;DHT22;5023;53.554;9.964;2023-01-28T19:22:35;2.80;99.90
9965;DHT22;5023;53.554;9.964;2023-01-28T19:27:37;2.70;99.90
9965;DHT22;5023;53.554;9.964;2023-01-28T19:32:40;2.70;99.90
9965;DHT22;5023;53.554;9.964;2023-01-28T19:37:43;2.60;99.90
9965;DHT22;5023;53.554;9.964;2023-01-28T19:42:45;2.70;99.90
9965;DHT22;5023;53.554;9.964;2023-01-28T19:47:47;2.70;99.90
9965;DHT22;5023;53.554;9.964;2023-01-28T19:52:51;2.70;99.90
9965;DHT22;5023;53.554;9.964;2023-01-28T19:57:54;2.70;99.90
9965;DHT22;5023;53.554;9.964;2023-01-28T20:02:57;2.60;99.90
9965;DHT22;5023;53.554;9.964;2023-01-28T20:08:01;2.70;99.90
9965;DHT22;5023;53.554;9.964;2023-01-28T20:13:04;2.70;99.90
9965;DHT22;5023;53.554;9.964;2023-01-28T20:18:06;2.60;99.90
9965;DHT22;5023;53.554;9.964;2023-01-28T20:23:10;2.70;99.90
9965;DHT22;5023;53.554;9.964;2023-01-28T20:28:12;2.70;99.90
9965;DHT22;5023;53.554;9.964;2023-01-28T20:33:14;2.70;99.90
9965;DHT22;5023;53.554;9.964;2023-01-28T20:38:20;2.70;99.90
9965;DHT22;5023;53.554;9.964;2023-01-28T20:43:22;2.60;99.90
9965;DHT22;5023;53.554;9.964;2023-01-28T20:48:24;2.70;99.90
9965;DHT22;5023;53.554;9.964;2023-01-28T20:53:28;2.70;99.90
9965;DHT22;5023;53.554;9.964;2023-01-28T20:58:30;2.70;99.90
9965;DHT22;5023;53.554;9.964;2023-01-28T21:03:32;2.80;99.90
9965;DHT22;5023;53.554;9.964;2023-01-28T21:08:36;2.80;99.90
9965;DHT22;5023;53.554;9.964;2023-01-28T21:13:39;2.70;99.90
9965;DHT22;5023;53.554;9.964;2023-01-28T21:18:41;2.70;99.90
9965;DHT22;5023;53.554;9.964;2023-01-28T21:23:45;2.70;99.90
9965;DHT22;5023;53.554;9.964;2023-01-28T21:28:47;2.70;99.90
9965;DHT22;5023;53.554;9.964;2023-01-28T21:33:49;2.70;99.90
9965;DHT22;5023;53.554;9.964;2023-01-28T21:38:54;2.80;99.90
9965;DHT22;5023;53.554;9.964;2023-01-28T21:43:58;2.70;99.90
9965;DHT22;5023;53.554;9.964;2023-01-28T21:49:02;2.80;99.90
9965;DHT22;5023;53.554;9.964;2023-01-28T21:54:08;2.80;99.90
9965;DHT22;5023;53.554;9.964;2023-01-28T21:59:11;2.80;99.90
9965;DHT22;5023;53.554;9.964;2023-01-28T22:04:31;2.80;99.90
9965;DHT22;5023;53.554;9.964;2023-01-28T22:09:35;2.80;99.90
9965;DHT22;5023;53.554;9.964;2023-01-28T22:14:37;2.80;99.90
9965;DHT22;5023;53.554;9.964;2023-01-28T22:19:40;2.80;99.90
9965;DHT22;5023;53.554;9.964;2023-01-28T22:24:48;2.90;99.90
9965;DHT22;5023;53.554;9.964;2023-01-28T22:29:51;2.90;99.90
9965;DHT22;5023;53.554;9.964;2023-01-28T22:34:56;2.80;99.90
9965;DHT22;5023;53.554;9.964;2023-01-28T22:40:03;2.80;99.90
9965;DHT22;5023;53.554;9.964;2023-01-28T22:45:06;2.90;99.90
9965;DHT22;5023;53.554;9.964;2023-01-28T22:50:10;2.80;99.90
9965;DHT22;5023;53.554;9.964;2023-01-28T22:55:16;2.80;99.90
9965;DHT22;5023;53.554;9.964;2023-01-28T23:00:19;2.80;99.90
9965;DHT22;5023;53.554;9.964;2023-01-28T23:05:21;2.90;99.90
9965;DHT22;5023;53.554;9.964;2023-01-28T23:10:26;2.90;99.90
9965;DHT22;5023;53.554;9.964;2023-01-28T23:15:28;3.00;99.90
9965;DHT22;5023;53.554;9.964;2023-01-28T23:20:47;3.00;99.90
9965;DHT22;5023;53.554;9.964;2023-01-28T23:26:08;2.90;99.90
9965;DHT22;5023;53.554;9.964;2023-01-28T23:31:10;2.90;99.90
9965;DHT22;5023;53.554;9.964;2023-01-28T23:36:13;2.90;99.90
9965;DHT22;5023;53.554;9.964;2023-01-28T23:41:16;2.90;99.90
9965;DHT22;5023;53.554;9.964;2023-01-28T23:46:18;3.00;99.90
9965;DHT22;5023;53.554;9.964;2023-01-28T23:51:23;3.00;99.90
9965;DHT22;5023;53.554;9.964;2023-01-28T23:56:27;3.00;99.90
